createdAt,value
2022-10-20T00:00:10.034Z,0.00
2022-10-20T00:01:09.964Z,0.00
2022-10-20T00:02:09.930Z,0.00
2022-10-20T00:03:09.837Z,0.00
2022-10-20T00:04:10.057Z,0.00
2022-10-20T00:05:09.703Z,0.00
2022-10-20T00:06:09.645Z,0.00
2022-10-20T00:07:09.581Z,0.00
2022-10-20T00:08:09.527Z,0.00
2022-10-20T00:09:09.538Z,0.00
2022-10-20T00:10:09.413Z,0.00
2022-10-20T00:11:09.325Z,0.00
2022-10-20T00:12:09.251Z,0.00
2022-10-20T00:13:09.210Z,0.00
2022-10-20T00:14:09.127Z,0.00
2022-10-20T00:15:09.063Z,0.00
2022-10-20T00:16:09.015Z,0.00
2022-10-20T00:17:08.953Z,0.00
2022-10-20T00:18:08.876Z,0.00
2022-10-20T00:19:08.806Z,0.00
2022-10-20T00:20:08.775Z,0.00
2022-10-20T00:21:08.690Z,0.00
2022-10-20T00:22:08.622Z,0.00
2022-10-20T00:23:08.551Z,0.00
2022-10-20T00:24:08.495Z,0.00
2022-10-20T00:25:08.423Z,0.00
2022-10-20T00:26:08.361Z,0.00
2022-10-20T00:27:08.308Z,0.00
2022-10-20T00:29:47.183Z,0.00
2022-10-20T00:30:48.126Z,0.00
2022-10-20T00:31:48.057Z,0.00
2022-10-20T00:32:47.996Z,0.00
2022-10-20T00:33:47.944Z,0.00
2022-10-20T00:34:47.853Z,0.00
2022-10-20T00:35:47.793Z,0.00
2022-10-20T00:36:50.452Z,0.00
2022-10-20T00:37:47.678Z,0.00
2022-10-20T00:38:47.590Z,0.00
2022-10-20T00:39:47.536Z,0.00
2022-10-20T00:40:47.484Z,0.00
2022-10-20T00:41:47.399Z,0.00
2022-10-20T00:42:47.337Z,0.00
2022-10-20T00:43:47.313Z,0.00
2022-10-20T00:44:47.216Z,0.00
2022-10-20T00:46:08.127Z,0.00
2022-10-20T00:46:47.078Z,0.00
2022-10-20T00:47:47.019Z,0.00
2022-10-20T00:48:46.957Z,0.00
2022-10-20T00:49:46.888Z,0.00
2022-10-20T00:50:46.841Z,0.00
2022-10-20T00:51:46.780Z,0.00
2022-10-20T00:52:46.699Z,0.00
2022-10-20T00:53:46.634Z,0.00
2022-10-20T00:54:46.580Z,0.00
2022-10-20T00:55:46.529Z,0.00
2022-10-20T00:56:46.441Z,0.00
2022-10-20T00:57:46.407Z,0.00
2022-10-20T00:58:46.326Z,0.00
2022-10-20T00:59:46.243Z,0.00
2022-10-20T01:00:46.203Z,0.00
2022-10-20T01:01:46.203Z,0.00
2022-10-20T01:02:46.063Z,0.00
2022-10-20T01:05:24.931Z,0.00
2022-10-20T01:06:25.877Z,0.00
2022-10-20T01:07:25.818Z,0.00
2022-10-20T01:08:25.767Z,0.00
2022-10-20T01:09:25.694Z,0.00
2022-10-20T01:10:25.618Z,0.00
2022-10-20T01:11:25.554Z,0.00
2022-10-20T01:12:25.500Z,0.00
2022-10-20T01:13:25.420Z,0.00
2022-10-20T01:14:25.346Z,0.00
2022-10-20T01:16:25.223Z,0.00
2022-10-20T01:17:25.167Z,0.00
2022-10-20T01:18:25.092Z,0.00
2022-10-20T01:19:25.039Z,0.00
2022-10-20T01:20:24.981Z,0.00
2022-10-20T01:21:24.929Z,0.00
2022-10-20T01:22:24.848Z,0.00
2022-10-20T01:23:24.770Z,0.00
2022-10-20T01:24:24.734Z,0.00
2022-10-20T01:25:24.678Z,0.00
2022-10-20T01:26:24.590Z,0.00
2022-10-20T01:27:24.546Z,0.00
2022-10-20T01:28:24.449Z,0.00
2022-10-20T01:29:24.401Z,0.00
2022-10-20T01:30:24.329Z,0.00
2022-10-20T01:31:24.263Z,0.00
2022-10-20T01:32:24.213Z,0.00
2022-10-20T01:33:24.186Z,0.00
2022-10-20T01:34:24.082Z,0.00
2022-10-20T01:35:24.007Z,0.00
2022-10-20T01:36:23.953Z,0.00
2022-10-20T01:37:34.024Z,0.00
2022-10-20T01:38:23.821Z,0.00
2022-10-20T01:39:44.731Z,0.00
2022-10-20T01:40:23.686Z,0.00
2022-10-20T01:41:23.626Z,0.00
2022-10-20T01:42:23.600Z,0.00
2022-10-20T01:43:23.507Z,0.00
2022-10-20T01:44:23.428Z,0.00
2022-10-20T01:45:23.389Z,0.00
2022-10-20T01:46:23.293Z,0.00
2022-10-20T01:47:23.234Z,0.00
2022-10-20T01:48:23.185Z,0.00
2022-10-20T01:49:23.119Z,0.00
2022-10-20T01:50:23.046Z,0.00
2022-10-20T01:51:22.991Z,0.00
2022-10-20T01:52:22.910Z,0.00
2022-10-20T01:53:22.852Z,0.00
2022-10-20T01:54:22.784Z,0.00
2022-10-20T01:55:22.738Z,0.00
2022-10-20T01:56:22.653Z,0.00
2022-10-20T01:59:01.521Z,0.00
2022-10-20T02:00:02.468Z,0.00
2022-10-20T02:01:02.395Z,0.00
2022-10-20T02:02:02.341Z,0.00
2022-10-20T02:03:02.290Z,0.00
2022-10-20T02:04:02.218Z,0.00
2022-10-20T02:05:02.159Z,0.00
2022-10-20T02:06:02.075Z,0.00
2022-10-20T02:07:02.016Z,0.00
2022-10-20T02:08:01.958Z,0.00
2022-10-20T02:09:02.233Z,0.00
2022-10-20T02:10:01.831Z,0.00
2022-10-20T02:11:01.770Z,0.00
2022-10-20T02:12:01.702Z,0.00
2022-10-20T02:13:01.636Z,0.00
2022-10-20T02:14:01.567Z,0.00
2022-10-20T02:15:01.514Z,0.00
2022-10-20T02:16:01.432Z,0.00
2022-10-20T02:17:01.368Z,0.00
2022-10-20T02:18:01.317Z,0.00
2022-10-20T02:19:01.244Z,0.00
2022-10-20T02:20:01.177Z,0.00
2022-10-20T02:21:01.145Z,0.00
2022-10-20T02:22:01.058Z,0.00
2022-10-20T02:23:00.985Z,0.00
2022-10-20T02:24:00.936Z,0.00
2022-10-20T02:25:00.856Z,0.00
2022-10-20T02:26:00.802Z,0.00
2022-10-20T02:27:00.757Z,0.00
2022-10-20T02:29:00.613Z,0.00
2022-10-20T02:30:00.548Z,0.00
2022-10-20T02:31:00.470Z,0.00
2022-10-20T02:32:00.404Z,0.00
2022-10-20T02:33:21.317Z,0.00
2022-10-20T02:34:00.276Z,0.00
2022-10-20T02:35:04.932Z,0.00
2022-10-20T02:36:00.164Z,0.00
2022-10-20T02:37:00.098Z,0.00
2022-10-20T02:38:00.034Z,0.00
2022-10-20T02:38:59.987Z,0.00
2022-10-20T02:39:59.896Z,0.00
2022-10-20T02:40:59.847Z,0.00
2022-10-20T02:41:59.798Z,0.00
2022-10-20T02:42:59.704Z,0.00
2022-10-20T02:43:59.653Z,0.00
2022-10-20T02:44:59.588Z,0.00
2022-10-20T02:45:59.520Z,0.00
2022-10-20T02:46:59.439Z,0.00
2022-10-20T02:47:59.388Z,0.00
2022-10-20T02:48:59.328Z,0.00
2022-10-20T02:49:59.245Z,0.00
2022-10-20T02:51:20.173Z,0.00
2022-10-20T02:51:59.121Z,0.00
2022-10-20T02:52:59.072Z,0.00
2022-10-20T02:53:59.004Z,0.00
2022-10-20T02:54:58.924Z,0.00
2022-10-20T02:55:58.881Z,0.00
2022-10-20T02:56:58.832Z,0.00
2022-10-20T02:57:58.738Z,0.00
2022-10-20T02:58:58.688Z,0.00
2022-10-20T02:59:58.602Z,0.00
2022-10-20T03:00:58.557Z,0.00
2022-10-20T03:01:58.540Z,0.00
2022-10-20T03:02:58.443Z,0.00
2022-10-20T03:03:58.347Z,0.00
2022-10-20T03:04:58.287Z,0.00
2022-10-20T03:05:58.246Z,0.00
2022-10-20T03:06:58.163Z,0.00
2022-10-20T03:07:58.116Z,0.00
2022-10-20T03:08:58.085Z,0.00
2022-10-20T03:09:57.964Z,0.00
2022-10-20T03:10:57.903Z,0.00
2022-10-20T03:11:57.838Z,0.00
2022-10-20T03:12:57.768Z,0.00
2022-10-20T03:13:57.718Z,0.00
2022-10-20T03:14:57.994Z,0.00
2022-10-20T03:15:57.588Z,0.00
2022-10-20T03:16:57.510Z,0.00
2022-10-20T03:17:57.463Z,0.00
2022-10-20T03:19:00.303Z,0.00
2022-10-20T03:19:57.342Z,0.00
2022-10-20T03:20:57.289Z,0.00
2022-10-20T03:21:57.205Z,0.00
2022-10-20T03:22:57.137Z,0.00
2022-10-20T03:23:57.064Z,0.00
2022-10-20T03:24:57.009Z,0.00
2022-10-20T03:25:56.956Z,0.00
2022-10-20T03:26:56.908Z,0.00
2022-10-20T03:27:56.817Z,0.00
2022-10-20T03:28:56.750Z,0.00
2022-10-20T03:29:56.693Z,0.00
2022-10-20T03:30:56.617Z,0.00
2022-10-20T03:31:56.556Z,0.00
2022-10-20T03:32:56.505Z,0.00
2022-10-20T03:33:56.436Z,0.00
2022-10-20T03:34:56.367Z,0.00
2022-10-20T03:35:56.295Z,0.00
2022-10-20T03:36:56.239Z,0.00
2022-10-20T03:37:56.159Z,0.00
2022-10-20T03:38:56.122Z,0.00
2022-10-20T03:39:56.034Z,0.00
2022-10-20T03:40:56.016Z,0.00
2022-10-20T03:41:55.917Z,0.00
2022-10-20T03:42:55.848Z,0.00
2022-10-20T03:43:55.781Z,0.00
2022-10-20T03:44:55.745Z,0.00
2022-10-20T03:45:55.670Z,0.00
2022-10-20T03:46:55.586Z,0.00
2022-10-20T03:47:55.518Z,0.00
2022-10-20T03:48:55.457Z,0.00
2022-10-20T03:49:55.534Z,0.00
2022-10-20T03:50:55.347Z,0.00
2022-10-20T03:51:55.288Z,0.00
2022-10-20T03:52:55.210Z,0.00
2022-10-20T03:53:55.149Z,0.00
2022-10-20T03:54:55.066Z,0.00
2022-10-20T03:55:55.023Z,0.00
2022-10-20T03:56:56.509Z,0.00
2022-10-20T03:57:54.894Z,0.00
2022-10-20T03:58:54.876Z,0.00
2022-10-20T03:59:54.757Z,0.00
2022-10-20T04:00:54.700Z,0.00
2022-10-20T04:01:54.695Z,0.00
2022-10-20T04:02:54.588Z,0.00
2022-10-20T04:03:54.515Z,0.00
2022-10-20T04:04:54.439Z,0.00
2022-10-20T04:05:54.363Z,0.00
2022-10-20T04:06:54.312Z,0.00
2022-10-20T04:07:54.241Z,0.00
2022-10-20T04:08:54.255Z,0.00
2022-10-20T04:09:54.118Z,0.00
2022-10-20T04:10:54.055Z,0.00
2022-10-20T04:11:54.004Z,0.00
2022-10-20T04:12:53.928Z,0.00
2022-10-20T04:13:53.858Z,0.00
2022-10-20T04:14:53.799Z,0.00
2022-10-20T04:15:53.725Z,0.00
2022-10-20T04:16:53.679Z,0.00
2022-10-20T04:17:53.590Z,0.00
2022-10-20T04:18:53.555Z,0.00
2022-10-20T04:19:53.479Z,0.00
2022-10-20T04:21:14.376Z,0.00
2022-10-20T04:21:53.346Z,0.00
2022-10-20T04:22:53.280Z,0.00
2022-10-20T04:23:53.222Z,0.00
2022-10-20T04:24:53.146Z,0.00
2022-10-20T04:25:53.088Z,0.00
2022-10-20T04:26:53.039Z,0.00
2022-10-20T04:27:52.967Z,0.00
2022-10-20T04:28:52.883Z,0.00
2022-10-20T04:29:52.831Z,0.00
2022-10-20T04:30:52.756Z,0.00
2022-10-20T04:31:52.708Z,0.00
2022-10-20T04:32:52.651Z,0.00
2022-10-20T04:33:52.574Z,0.00
2022-10-20T04:34:52.500Z,0.00
2022-10-20T04:35:52.438Z,0.00
2022-10-20T04:36:52.387Z,0.00
2022-10-20T04:37:52.308Z,0.00
2022-10-20T04:38:52.267Z,0.00
2022-10-20T04:39:52.186Z,0.00
2022-10-20T04:40:52.110Z,0.00
2022-10-20T04:41:52.070Z,0.00
2022-10-20T04:42:52.031Z,0.00
2022-10-20T04:43:51.920Z,0.00
2022-10-20T04:44:51.950Z,0.00
2022-10-20T04:45:51.786Z,0.00
2022-10-20T04:46:51.723Z,0.00
2022-10-20T04:47:51.670Z,0.00
2022-10-20T04:48:51.614Z,0.00
2022-10-20T04:49:51.536Z,0.00
2022-10-20T04:50:51.491Z,0.00
2022-10-20T04:51:51.438Z,0.00
2022-10-20T04:52:51.377Z,0.00
2022-10-20T04:53:51.294Z,0.00
2022-10-20T04:54:51.206Z,0.00
2022-10-20T04:55:51.144Z,0.00
2022-10-20T04:56:51.097Z,0.00
2022-10-20T04:57:51.039Z,0.00
2022-10-20T04:58:50.955Z,0.00
2022-10-20T04:59:50.888Z,0.00
2022-10-20T05:00:50.824Z,0.00
2022-10-20T05:01:50.889Z,0.00
2022-10-20T05:02:50.704Z,0.00
2022-10-20T05:03:50.637Z,0.00
2022-10-20T05:04:50.583Z,0.00
2022-10-20T05:05:50.518Z,0.00
2022-10-20T05:06:50.439Z,0.00
2022-10-20T05:07:50.377Z,0.00
2022-10-20T05:08:50.377Z,0.00
2022-10-20T05:09:50.241Z,0.00
2022-10-20T05:10:50.179Z,0.00
2022-10-20T05:11:50.132Z,0.00
2022-10-20T05:12:50.068Z,0.00
2022-10-20T05:13:50.009Z,0.00
2022-10-20T05:14:49.946Z,0.00
2022-10-20T05:15:49.882Z,0.00
2022-10-20T05:16:49.803Z,0.00
2022-10-20T05:17:49.744Z,0.00
2022-10-20T05:18:49.629Z,1.00
2022-10-20T05:19:49.632Z,0.00
2022-10-20T05:21:07.867Z,0.00
2022-10-20T05:21:49.490Z,0.00
2022-10-20T05:22:49.392Z,1.00
2022-10-20T05:23:49.284Z,1.00
2022-10-20T05:24:49.234Z,1.00
2022-10-20T05:25:49.221Z,0.00
2022-10-20T05:26:49.427Z,0.00
2022-10-20T05:27:49.065Z,2.00
2022-10-20T05:28:48.975Z,1.00
2022-10-20T05:29:49.139Z,1.00
2022-10-20T05:30:48.851Z,4.00
2022-10-20T05:31:48.827Z,1.00
2022-10-20T05:33:09.721Z,1.00
2022-10-20T05:33:48.645Z,2.00
2022-10-20T05:34:48.597Z,3.00
2022-10-20T05:35:48.518Z,4.00
2022-10-20T05:36:48.471Z,5.00
2022-10-20T05:37:48.407Z,6.00
2022-10-20T05:38:48.386Z,8.00
2022-10-20T05:40:48.382Z,9.00
2022-10-20T05:41:48.144Z,10.00
2022-10-20T05:42:48.081Z,14.00
2022-10-20T05:43:48.042Z,17.00
2022-10-20T05:44:47.956Z,16.00
2022-10-20T05:45:47.864Z,18.00
2022-10-20T05:46:47.803Z,27.00
2022-10-20T05:47:47.751Z,27.00
2022-10-20T05:48:47.686Z,31.00
2022-10-20T05:49:47.630Z,34.00
2022-10-20T05:51:56.732Z,45.00
2022-10-20T05:52:57.661Z,43.00
2022-10-20T05:53:57.599Z,46.00
2022-10-20T05:54:57.524Z,47.00
2022-10-20T05:55:57.458Z,56.00
2022-10-20T05:56:57.408Z,55.00
2022-10-20T05:57:57.328Z,60.00
2022-10-20T05:58:57.267Z,64.00
2022-10-20T05:59:57.198Z,74.00
2022-10-20T06:00:57.137Z,76.00
2022-10-20T06:01:57.062Z,87.00
2022-10-20T06:02:57.036Z,95.00
2022-10-20T06:03:56.940Z,95.00
2022-10-20T06:04:56.877Z,118.00
2022-10-20T06:05:56.824Z,121.00
2022-10-20T06:06:56.764Z,127.00
2022-10-20T06:07:56.695Z,136.00
2022-10-20T06:08:56.713Z,146.00
2022-10-20T06:09:56.563Z,163.00
2022-10-20T06:10:56.484Z,176.00
2022-10-20T06:11:56.494Z,184.00
2022-10-20T06:12:56.412Z,193.00
2022-10-20T06:13:56.308Z,210.00
2022-10-20T06:14:56.238Z,224.00
2022-10-20T06:15:56.173Z,241.00
2022-10-20T06:16:56.123Z,256.00
2022-10-20T06:17:56.036Z,271.00
2022-10-20T06:18:55.985Z,285.00
2022-10-20T06:19:55.920Z,304.00
2022-10-20T06:20:55.874Z,322.00
2022-10-20T06:21:55.796Z,343.00
2022-10-20T06:22:55.719Z,353.00
2022-10-20T06:23:55.670Z,375.00
2022-10-20T06:24:55.576Z,396.00
2022-10-20T06:25:55.528Z,412.00
2022-10-20T06:28:34.348Z,500.00
2022-10-20T06:29:35.250Z,482.00
2022-10-20T06:30:35.188Z,502.00
2022-10-20T06:31:35.118Z,522.00
2022-10-20T06:32:35.409Z,545.00
2022-10-20T06:33:35.006Z,551.00
2022-10-20T06:34:34.927Z,576.00
2022-10-20T06:35:34.872Z,594.00
2022-10-20T06:36:34.802Z,608.00
2022-10-20T06:37:34.754Z,587.00
2022-10-20T06:38:35.605Z,627.00
2022-10-20T06:39:34.611Z,731.00
2022-10-20T06:40:34.533Z,801.00
2022-10-20T06:41:34.488Z,831.00
2022-10-20T06:42:34.753Z,865.00
2022-10-20T06:43:34.340Z,911.00
2022-10-20T06:44:34.332Z,954.00
2022-10-20T06:45:34.224Z,967.00
2022-10-20T06:46:34.145Z,1054.00
2022-10-20T06:47:34.323Z,1079.00
2022-10-20T06:48:34.044Z,1147.00
2022-10-20T06:49:33.954Z,1213.00
2022-10-20T06:50:33.930Z,1105.00
2022-10-20T06:51:33.843Z,1209.00
2022-10-20T06:52:34.091Z,929.00
2022-10-20T06:53:33.697Z,1179.00
2022-10-20T06:54:33.660Z,1089.00
2022-10-20T06:55:33.588Z,924.00
2022-10-20T06:56:33.528Z,903.00
2022-10-20T06:57:33.439Z,886.00
2022-10-20T06:58:33.384Z,883.00
2022-10-20T06:59:33.460Z,896.00
2022-10-20T07:00:33.289Z,926.00
2022-10-20T07:01:33.212Z,936.00
2022-10-20T07:02:33.296Z,949.00
2022-10-20T07:03:33.074Z,978.00
2022-10-20T07:04:33.025Z,964.00
2022-10-20T07:05:32.935Z,986.00
2022-10-20T07:06:32.858Z,997.00
2022-10-20T07:07:32.936Z,991.00
2022-10-20T07:08:32.823Z,999.00
2022-10-20T07:09:32.664Z,1014.00
2022-10-20T07:10:32.620Z,1020.00
2022-10-20T07:11:32.575Z,1032.00
2022-10-20T07:12:32.576Z,1040.00
2022-10-20T07:13:32.634Z,990.00
2022-10-20T07:14:33.982Z,1142.00
2022-10-20T07:15:33.439Z,1550.00
2022-10-20T07:16:33.923Z,1229.00
2022-10-20T07:17:32.954Z,1240.00
2022-10-20T07:18:32.121Z,1196.00
2022-10-20T07:19:32.012Z,1345.00
2022-10-20T07:22:10.846Z,1677.00
2022-10-20T07:23:11.750Z,1743.00
2022-10-20T07:24:11.674Z,1712.00
2022-10-20T07:25:11.615Z,1572.00
2022-10-20T07:26:11.573Z,1476.00
2022-10-20T07:27:11.488Z,1458.00
2022-10-20T07:28:11.419Z,1427.00
2022-10-20T07:29:11.356Z,1396.00
2022-10-20T07:30:11.301Z,1385.00
2022-10-20T07:31:11.238Z,1433.00
2022-10-20T07:32:11.192Z,1454.00
2022-10-20T07:33:11.127Z,1423.00
2022-10-20T07:34:24.970Z,1412.00
2022-10-20T07:35:10.992Z,1426.00
2022-10-20T07:36:10.907Z,1409.00
2022-10-20T07:37:10.878Z,1427.00
2022-10-20T07:38:10.833Z,1508.00
2022-10-20T07:39:10.728Z,1485.00
2022-10-20T07:40:10.661Z,1506.00
2022-10-20T07:41:10.596Z,1503.00
2022-10-20T07:42:10.524Z,1521.00
2022-10-20T07:43:10.457Z,1507.00
2022-10-20T07:44:10.421Z,1490.00
2022-10-20T07:45:10.333Z,1527.00
2022-10-20T07:46:10.271Z,1594.00
2022-10-20T07:47:10.199Z,1656.00
2022-10-20T07:48:10.151Z,1699.00
2022-10-20T07:49:42.997Z,1754.00
2022-10-20T07:50:10.036Z,1768.00
2022-10-20T07:51:10.058Z,1806.00
2022-10-20T07:52:09.898Z,1804.00
2022-10-20T07:53:09.813Z,1767.00
2022-10-20T07:54:09.789Z,1752.00
2022-10-20T07:55:23.927Z,1759.00
2022-10-20T07:57:19.874Z,1774.00
2022-10-20T07:58:20.762Z,1764.00
2022-10-20T07:59:20.678Z,1797.00
2022-10-20T08:00:20.608Z,1773.00
2022-10-20T08:01:20.615Z,1749.00
2022-10-20T08:02:20.572Z,1756.00
2022-10-20T08:03:20.440Z,1756.00
2022-10-20T08:04:20.362Z,1789.00
2022-10-20T08:05:20.282Z,1789.00
2022-10-20T08:06:20.215Z,1778.00
2022-10-20T08:07:20.158Z,1749.00
2022-10-20T08:08:20.111Z,1823.00
2022-10-20T08:09:20.019Z,1828.00
2022-10-20T08:10:20.064Z,1814.00
2022-10-20T08:11:19.909Z,1808.00
2022-10-20T08:12:19.848Z,1817.00
2022-10-20T08:13:19.776Z,1827.00
2022-10-20T08:15:59.633Z,1796.00
2022-10-20T08:17:01.079Z,1779.00
2022-10-20T08:17:59.533Z,1791.00
2022-10-20T08:19:01.573Z,1804.00
2022-10-20T08:20:04.097Z,1837.00
2022-10-20T08:20:59.316Z,1863.00
2022-10-20T08:21:59.234Z,1876.00
2022-10-20T08:22:59.183Z,1877.00
2022-10-20T08:23:59.123Z,1888.00
2022-10-20T08:24:59.060Z,1889.00
2022-10-20T08:25:59.001Z,1889.00
2022-10-20T08:26:58.927Z,1887.00
2022-10-20T08:28:58.780Z,1876.00
2022-10-20T08:30:06.322Z,1846.00
2022-10-20T08:30:58.674Z,1829.00
2022-10-20T08:32:19.573Z,1822.00
2022-10-20T08:32:58.539Z,1807.00
2022-10-20T08:33:58.467Z,1799.00
2022-10-20T08:34:58.442Z,1797.00
2022-10-20T08:35:58.333Z,1790.00
2022-10-20T08:36:58.278Z,1771.00
2022-10-20T08:37:58.233Z,1763.00
2022-10-20T08:39:00.857Z,1750.00
2022-10-20T08:39:58.080Z,1738.00
2022-10-20T08:40:58.017Z,1736.00
2022-10-20T08:42:13.403Z,1745.00
2022-10-20T08:42:57.909Z,1754.00
2022-10-20T08:43:57.860Z,1767.00
2022-10-20T08:44:57.755Z,1790.00
2022-10-20T08:45:57.698Z,1818.00
2022-10-20T08:46:57.631Z,1835.00
2022-10-20T08:47:57.568Z,1836.00
2022-10-20T08:48:57.511Z,1843.00
2022-10-20T08:49:57.471Z,1867.00
2022-10-20T08:50:57.371Z,1891.00
2022-10-20T08:51:57.323Z,1892.00
2022-10-20T08:52:57.731Z,1906.00
2022-10-20T08:53:57.203Z,1901.00
2022-10-20T08:54:57.136Z,2108.00
2022-10-20T08:55:57.095Z,2166.00
2022-10-20T08:56:56.985Z,2078.00
2022-10-20T08:57:56.924Z,2152.00
2022-10-20T08:58:56.872Z,2158.00
2022-10-20T08:59:56.812Z,2241.00
2022-10-20T09:00:56.741Z,2271.00
2022-10-20T09:01:56.762Z,2266.00
2022-10-20T09:02:56.620Z,2310.00
2022-10-20T09:03:56.539Z,2421.00
2022-10-20T09:04:56.494Z,2326.00
2022-10-20T09:05:56.427Z,2236.00
2022-10-20T09:06:56.376Z,2377.00
2022-10-20T09:08:17.280Z,2448.00
2022-10-20T09:08:56.260Z,2444.00
2022-10-20T09:09:56.178Z,2356.00
2022-10-20T09:10:56.106Z,2326.00
2022-10-20T09:11:56.038Z,2325.00
2022-10-20T09:12:55.957Z,2409.00
2022-10-20T09:13:55.922Z,2356.00
2022-10-20T09:14:55.841Z,2298.00
2022-10-20T09:15:55.784Z,2309.00
2022-10-20T09:17:00.200Z,2278.00
2022-10-20T09:17:55.651Z,2161.00
2022-10-20T09:18:55.583Z,2041.00
2022-10-20T09:19:55.542Z,1975.00
2022-10-20T09:20:55.450Z,1959.00
2022-10-20T09:21:55.379Z,1985.00
2022-10-20T09:22:55.454Z,1958.00
2022-10-20T09:23:55.496Z,1889.00
2022-10-20T09:24:55.181Z,1857.00
2022-10-20T09:26:30.393Z,1839.00
2022-10-20T09:26:59.655Z,1872.00
2022-10-20T09:27:54.991Z,2019.00
2022-10-20T09:29:12.052Z,2042.00
2022-10-20T09:29:55.316Z,2131.00
2022-10-20T09:30:54.801Z,2101.00
2022-10-20T09:31:54.872Z,1975.00
2022-10-20T09:32:54.668Z,2394.00
2022-10-20T09:33:54.620Z,2415.00
2022-10-20T09:34:54.555Z,2655.00
2022-10-20T09:35:54.490Z,2773.00
2022-10-20T09:36:54.414Z,2953.00
2022-10-20T09:37:54.629Z,3096.00
2022-10-20T09:38:54.301Z,2751.00
2022-10-20T09:39:55.678Z,2510.00
2022-10-20T09:40:54.172Z,2821.00
2022-10-20T09:41:54.155Z,2426.00
2022-10-20T09:42:54.048Z,2343.00
2022-10-20T09:43:57.116Z,2183.00
2022-10-20T09:44:53.924Z,2097.00
2022-10-20T09:45:53.836Z,2338.00
2022-10-20T09:46:53.772Z,2089.00
2022-10-20T09:47:53.716Z,2196.00
2022-10-20T09:48:53.645Z,2432.00
2022-10-20T09:49:58.463Z,2195.00
2022-10-20T09:50:53.524Z,1986.00
2022-10-20T09:52:53.385Z,2488.00
2022-10-20T09:53:53.345Z,2406.00
2022-10-20T09:54:53.264Z,2407.00
2022-10-20T09:55:53.208Z,2309.00
2022-10-20T09:56:53.123Z,2501.00
2022-10-20T09:57:53.071Z,2486.00
2022-10-20T09:58:52.995Z,2876.00
2022-10-20T09:59:52.927Z,2482.00
2022-10-20T10:00:52.940Z,2604.00
2022-10-20T10:01:52.822Z,2612.00
2022-10-20T10:02:52.745Z,3037.00
2022-10-20T10:03:52.745Z,2734.00
2022-10-20T10:04:52.615Z,2477.00
2022-10-20T10:05:52.539Z,2292.00
2022-10-20T10:06:52.494Z,2221.00
2022-10-20T10:07:52.422Z,2138.00
2022-10-20T10:08:52.437Z,2037.00
2022-10-20T10:09:52.307Z,1949.00
2022-10-20T10:10:52.225Z,2034.00
2022-10-20T10:11:52.189Z,2049.00
2022-10-20T10:12:52.099Z,2021.00
2022-10-20T10:13:52.052Z,2098.00
2022-10-20T10:14:51.963Z,2053.00
2022-10-20T10:15:51.902Z,2174.00
2022-10-20T10:16:51.837Z,2176.00
2022-10-20T10:17:52.158Z,2147.00
2022-10-20T10:18:51.740Z,2184.00
2022-10-20T10:19:55.404Z,2185.00
2022-10-20T10:20:51.582Z,2197.00
2022-10-20T10:21:51.518Z,2254.00
2022-10-20T10:22:51.451Z,2242.00
2022-10-20T10:23:51.394Z,2259.00
2022-10-20T10:24:51.334Z,2270.00
2022-10-20T10:25:51.276Z,2319.00
2022-10-20T10:26:51.199Z,2352.00
2022-10-20T10:27:51.147Z,2305.00
2022-10-20T10:28:51.068Z,2477.00
2022-10-20T10:29:51.011Z,2590.00
2022-10-20T10:30:50.939Z,2499.00
2022-10-20T10:31:50.882Z,2469.00
2022-10-20T10:32:50.832Z,2488.00
2022-10-20T10:33:50.758Z,2487.00
2022-10-20T10:34:50.697Z,2441.00
2022-10-20T10:35:50.639Z,2390.00
2022-10-20T10:36:50.553Z,2408.00
2022-10-20T10:37:50.528Z,2411.00
2022-10-20T10:38:50.439Z,2432.00
2022-10-20T10:39:50.378Z,2433.00
2022-10-20T10:40:50.298Z,2467.00
2022-10-20T10:41:50.318Z,2500.00
2022-10-20T10:42:50.164Z,2555.00
2022-10-20T10:43:50.432Z,2543.00
2022-10-20T10:44:50.061Z,2511.00
2022-10-20T10:45:50.001Z,2499.00
2022-10-20T10:46:49.919Z,2561.00
2022-10-20T10:47:49.878Z,2561.00
2022-10-20T10:48:49.848Z,2610.00
2022-10-20T10:49:49.750Z,2582.00
2022-10-20T10:50:49.684Z,2499.00
2022-10-20T10:51:49.605Z,2501.00
2022-10-20T10:52:49.526Z,2709.00
2022-10-20T10:53:49.474Z,2598.00
2022-10-20T10:54:49.439Z,2608.00
2022-10-20T10:56:10.382Z,2581.00
2022-10-20T10:56:49.272Z,2630.00
2022-10-20T10:57:49.217Z,2549.00
2022-10-20T10:58:49.156Z,2519.00
2022-10-20T10:59:49.142Z,2633.00
2022-10-20T11:00:49.068Z,2544.00
2022-10-20T11:01:49.425Z,2493.00
2022-10-20T11:02:48.883Z,2462.00
2022-10-20T11:03:48.830Z,2574.00
2022-10-20T11:04:48.760Z,2598.00
2022-10-20T11:05:48.709Z,2604.00
2022-10-20T11:06:48.655Z,2617.00
2022-10-20T11:07:48.594Z,2622.00
2022-10-20T11:08:48.545Z,2577.00
2022-10-20T11:09:48.452Z,2533.00
2022-10-20T11:10:48.373Z,2447.00
2022-10-20T11:11:48.322Z,2443.00
2022-10-20T11:12:48.242Z,2386.00
2022-10-20T11:13:48.203Z,2362.00
2022-10-20T11:14:48.154Z,2325.00
2022-10-20T11:15:48.054Z,2307.00
2022-10-20T11:16:48.008Z,2276.00
2022-10-20T11:17:47.926Z,2231.00
2022-10-20T11:18:47.866Z,2230.00
2022-10-20T11:19:47.842Z,2282.00
2022-10-20T11:20:47.755Z,2264.00
2022-10-20T11:21:47.682Z,2292.00
2022-10-20T11:22:47.605Z,2313.00
2022-10-20T11:23:47.551Z,2385.00
2022-10-20T11:24:47.518Z,2388.00
2022-10-20T11:25:47.453Z,2401.00
2022-10-20T11:26:47.394Z,2434.00
2022-10-20T11:27:47.307Z,2393.00
2022-10-20T11:28:47.239Z,2377.00
2022-10-20T11:29:47.161Z,2374.00
2022-10-20T11:30:47.110Z,2342.00
2022-10-20T11:31:47.110Z,2305.00
2022-10-20T11:32:46.983Z,2319.00
2022-10-20T11:33:46.912Z,2334.00
2022-10-20T11:34:46.843Z,2381.00
2022-10-20T11:35:46.818Z,2378.00
2022-10-20T11:36:46.731Z,2410.00
2022-10-20T11:37:46.731Z,2448.00
2022-10-20T11:38:46.714Z,2515.00
2022-10-20T11:39:46.568Z,2583.00
2022-10-20T11:40:46.481Z,2691.00
2022-10-20T11:41:46.435Z,2715.00
2022-10-20T11:42:46.432Z,2730.00
2022-10-20T11:43:46.287Z,2745.00
2022-10-20T11:44:46.216Z,2752.00
2022-10-20T11:45:46.153Z,2761.00
2022-10-20T11:46:46.077Z,3009.00
2022-10-20T11:47:46.041Z,2924.00
2022-10-20T11:48:45.965Z,2773.00
2022-10-20T11:49:46.163Z,2688.00
2022-10-20T11:50:45.828Z,2541.00
2022-10-20T11:51:45.781Z,2430.00
2022-10-20T11:52:45.716Z,2326.00
2022-10-20T11:53:45.647Z,2238.00
2022-10-20T11:54:45.584Z,2174.00
2022-10-20T11:55:45.585Z,2109.00
2022-10-20T11:56:45.438Z,2073.00
2022-10-20T11:57:45.380Z,2031.00
2022-10-20T11:58:45.329Z,2032.00
2022-10-20T11:59:45.265Z,2013.00
2022-10-20T12:00:45.225Z,2079.00
2022-10-20T12:01:45.183Z,2063.00
2022-10-20T12:02:45.077Z,2079.00
2022-10-20T12:03:45.017Z,2058.00
2022-10-20T12:04:44.951Z,2014.00
2022-10-20T12:05:44.909Z,1926.00
2022-10-20T12:06:44.833Z,1907.00
2022-10-20T12:08:28.387Z,1914.00
2022-10-20T12:08:44.778Z,1866.00
2022-10-20T12:09:44.629Z,1891.00
2022-10-20T12:10:44.568Z,1934.00
2022-10-20T12:11:44.500Z,2019.00
2022-10-20T12:12:44.424Z,1992.00
2022-10-20T12:13:44.377Z,1906.00
2022-10-20T12:14:44.317Z,1933.00
2022-10-20T12:15:44.246Z,1969.00
2022-10-20T12:16:44.191Z,2027.00
2022-10-20T12:17:44.120Z,2050.00
2022-10-20T12:18:44.057Z,2021.00
2022-10-20T12:19:44.285Z,1931.00
2022-10-20T12:20:43.945Z,1874.00
2022-10-20T12:21:43.873Z,1788.00
2022-10-20T12:22:43.794Z,1713.00
2022-10-20T12:23:43.741Z,1597.00
2022-10-20T12:24:43.683Z,1507.00
2022-10-20T12:25:43.815Z,1388.00
2022-10-20T12:26:44.767Z,1242.00
2022-10-20T12:27:43.489Z,1159.00
2022-10-20T12:28:43.433Z,1083.00
2022-10-20T12:29:43.364Z,1012.00
2022-10-20T12:30:43.298Z,976.00
2022-10-20T12:31:44.743Z,942.00
2022-10-20T12:32:44.203Z,908.00
2022-10-20T12:33:44.339Z,856.00
2022-10-20T12:34:43.817Z,826.00
2022-10-20T12:35:51.737Z,806.00
2022-10-20T12:36:42.900Z,764.00
2022-10-20T12:37:44.970Z,740.00
2022-10-20T12:38:42.774Z,723.00
2022-10-20T12:39:42.727Z,710.00
2022-10-20T12:40:42.673Z,694.00
2022-10-20T12:41:43.337Z,683.00
2022-10-20T12:42:42.537Z,640.00
2022-10-20T12:43:42.463Z,598.00
2022-10-20T12:44:42.414Z,574.00
2022-10-20T12:45:42.338Z,576.00
2022-10-20T12:46:42.266Z,566.00
2022-10-20T12:47:42.206Z,545.00
2022-10-20T12:48:42.156Z,537.00
2022-10-20T12:49:42.128Z,531.00
2022-10-20T12:50:42.011Z,535.00
2022-10-20T12:51:41.957Z,532.00
2022-10-20T12:52:41.901Z,513.00
2022-10-20T12:53:41.841Z,486.00
2022-10-20T12:54:46.238Z,456.00
2022-10-20T12:55:42.411Z,431.00
2022-10-20T12:56:41.668Z,415.00